createdAt,value
2019-02-16T00:00:24.975Z,12.10
2019-02-16T00:02:53.582Z,10.90
2019-02-16T00:05:22.140Z,12.90
2019-02-16T00:07:50.699Z,10.93
2019-02-16T00:10:19.296Z,8.58
2019-02-16T00:12:48.050Z,10.38
2019-02-16T00:15:16.734Z,11.33
2019-02-16T00:17:45.297Z,10.08
2019-02-16T00:20:13.941Z,11.75
2019-02-16T00:22:42.500Z,11.85
2019-02-16T00:25:11.099Z,7.65
2019-02-16T00:27:39.651Z,9.43
2019-02-16T00:30:08.688Z,8.98
2019-02-16T00:32:37.409Z,9.05
2019-02-16T00:35:06.487Z,9.18
2019-02-16T00:37:35.042Z,10.10
2019-02-16T00:40:05.683Z,8.98
2019-02-16T00:42:34.236Z,9.03
2019-02-16T00:45:02.906Z,9.58
2019-02-16T00:47:31.460Z,9.75
2019-02-16T00:50:00.152Z,9.58
2019-02-16T00:52:28.820Z,11.43
2019-02-16T00:54:57.420Z,12.40
2019-02-16T00:57:25.983Z,11.05
2019-02-16T00:59:54.584Z,9.53
2019-02-16T01:02:23.208Z,9.55
2019-02-16T01:04:51.809Z,9.40
2019-02-16T01:07:20.363Z,12.28
2019-02-16T01:09:49.080Z,11.63
2019-02-16T01:12:17.628Z,13.65
2019-02-16T01:14:46.228Z,17.98
2019-02-16T01:17:14.862Z,10.18
2019-02-16T01:19:43.460Z,10.58
2019-02-16T01:22:12.012Z,11.90
2019-02-16T01:24:40.604Z,13.75
2019-02-16T01:27:09.165Z,10.55
2019-02-16T01:29:37.761Z,9.60
2019-02-16T01:32:06.320Z,11.33
2019-02-16T01:34:34.979Z,11.95
2019-02-16T01:37:03.538Z,10.30
2019-02-16T01:39:32.142Z,12.15
2019-02-16T01:42:00.700Z,13.53
2019-02-16T01:44:29.298Z,12.20
2019-02-16T01:46:57.853Z,13.25
2019-02-16T01:49:26.448Z,9.68
2019-02-16T01:51:55.004Z,10.32
2019-02-16T01:54:23.655Z,12.75
2019-02-16T01:56:52.209Z,9.98
2019-02-16T01:59:20.812Z,9.80
2019-02-16T02:01:49.368Z,10.15
2019-02-16T02:04:17.963Z,11.97
2019-02-16T02:06:46.520Z,11.15
2019-02-16T02:09:15.124Z,11.00
2019-02-16T02:11:43.675Z,9.40
2019-02-16T02:14:12.272Z,10.75
2019-02-16T02:16:40.829Z,11.05
2019-02-16T02:19:09.480Z,10.90
2019-02-16T02:21:41.231Z,11.48
2019-02-16T02:24:08.285Z,11.75
2019-02-16T02:26:36.839Z,10.08
2019-02-16T02:29:05.442Z,12.35
2019-02-16T02:31:34.001Z,10.80
2019-02-16T02:34:02.591Z,9.63
2019-02-16T02:36:31.160Z,11.33
2019-02-16T02:38:59.704Z,10.23
2019-02-16T02:41:28.299Z,11.95
2019-02-16T02:43:56.856Z,12.00
2019-02-16T02:46:25.471Z,10.90
2019-02-16T02:48:54.017Z,10.13
2019-02-16T02:51:22.613Z,8.90
2019-02-16T02:53:51.171Z,11.45
2019-02-16T02:56:19.769Z,10.00
2019-02-16T02:58:48.321Z,10.72
2019-02-16T03:01:16.916Z,10.88
2019-02-16T03:03:45.467Z,11.65
2019-02-16T03:06:14.067Z,12.15
2019-02-16T03:08:42.620Z,12.03
2019-02-16T03:11:11.212Z,12.07
2019-02-16T03:13:39.773Z,12.10
2019-02-16T03:16:08.385Z,10.85
2019-02-16T03:18:36.926Z,10.95
2019-02-16T03:21:05.526Z,10.28
2019-02-16T03:23:34.118Z,10.38
2019-02-16T03:26:14.297Z,12.53
2019-02-16T03:28:57.560Z,8.60
2019-02-16T03:31:40.893Z,11.05
2019-02-16T03:34:18.198Z,11.85
2019-02-16T03:37:22.535Z,11.78
2019-02-16T03:39:51.089Z,11.65
2019-02-16T03:42:19.688Z,12.07
2019-02-16T03:44:48.242Z,13.80
2019-02-16T03:47:16.832Z,9.83
2019-02-16T03:49:45.390Z,13.50
2019-02-16T03:52:14.398Z,12.58
2019-02-16T03:54:42.948Z,10.10
2019-02-16T03:57:11.544Z,12.78
2019-02-16T03:59:40.096Z,11.40
2019-02-16T04:02:08.698Z,10.50
2019-02-16T04:04:37.251Z,12.80
2019-02-16T04:07:05.859Z,8.38
2019-02-16T04:09:34.407Z,9.18
2019-02-16T04:12:03.851Z,10.05
2019-02-16T04:14:32.449Z,11.38
2019-02-16T04:17:01.734Z,10.65
2019-02-16T04:19:30.280Z,9.80
2019-02-16T04:21:58.878Z,11.28
2019-02-16T04:24:27.456Z,14.47
2019-02-16T04:26:56.049Z,12.18
2019-02-16T04:29:24.596Z,12.28
2019-02-16T04:31:53.188Z,10.85
2019-02-16T04:34:21.847Z,10.18
2019-02-16T04:36:50.441Z,15.32
2019-02-16T04:39:19.003Z,11.80
2019-02-16T04:41:47.603Z,9.25
2019-02-16T04:44:16.152Z,10.25
2019-02-16T04:46:44.748Z,10.35
2019-02-16T04:49:13.296Z,7.67
2019-02-16T04:51:41.893Z,12.35
2019-02-16T04:54:10.453Z,11.03
2019-02-16T04:56:39.048Z,11.55
2019-02-16T04:59:07.614Z,13.18
2019-02-16T05:01:36.201Z,13.53
2019-02-16T05:04:04.757Z,12.43
2019-02-16T05:06:33.361Z,10.40
2019-02-16T05:09:01.917Z,15.00
2019-02-16T05:11:30.510Z,15.55
2019-02-16T05:13:59.060Z,11.35
2019-02-16T05:16:27.659Z,12.28
2019-02-16T05:18:56.213Z,11.48
2019-02-16T05:21:24.807Z,10.98
2019-02-16T05:23:53.358Z,13.35
2019-02-16T05:26:21.917Z,10.75
2019-02-16T05:28:50.517Z,11.00
2019-02-16T05:31:19.074Z,10.60
2019-02-16T05:33:47.675Z,10.82
2019-02-16T05:36:16.221Z,14.68
2019-02-16T05:38:44.816Z,9.58
2019-02-16T05:41:13.376Z,9.78
2019-02-16T05:43:42.069Z,11.45
2019-02-16T05:46:10.629Z,11.65
2019-02-16T05:48:39.224Z,8.75
2019-02-16T05:51:07.774Z,13.50
2019-02-16T05:53:36.388Z,10.40
2019-02-16T05:56:05.017Z,11.97
2019-02-16T05:58:33.614Z,14.30
2019-02-16T06:01:02.173Z,16.27
2019-02-16T06:03:30.770Z,10.65
2019-02-16T06:05:59.325Z,10.48
2019-02-16T06:08:27.928Z,16.35
2019-02-16T06:10:56.481Z,16.55
2019-02-16T06:13:25.085Z,14.73
2019-02-16T06:15:53.636Z,11.15
2019-02-16T06:18:22.232Z,13.55
2019-02-16T06:20:50.789Z,13.00
2019-02-16T06:23:19.392Z,11.30
2019-02-16T06:25:47.948Z,10.50
2019-02-16T06:28:16.551Z,11.80
2019-02-16T06:30:45.104Z,14.15
2019-02-16T06:33:13.703Z,9.40
2019-02-16T06:35:46.620Z,10.63
2019-02-16T06:38:15.293Z,14.25
2019-02-16T06:40:43.781Z,11.15
2019-02-16T06:43:12.372Z,11.25
2019-02-16T06:45:40.933Z,10.63
2019-02-16T06:48:09.537Z,13.08
2019-02-16T06:50:38.093Z,11.25
2019-02-16T06:53:12.933Z,10.53
2019-02-16T06:55:38.532Z,11.60
2019-02-16T06:58:07.136Z,10.65
2019-02-16T07:00:35.783Z,10.70
2019-02-16T07:03:04.381Z,12.73
2019-02-16T07:05:32.933Z,11.30
2019-02-16T07:08:01.536Z,12.63
2019-02-16T07:10:30.087Z,16.75
2019-02-16T07:12:58.691Z,11.15
2019-02-16T07:15:27.244Z,10.95
2019-02-16T07:17:57.487Z,13.98
2019-02-16T07:20:26.041Z,13.10
2019-02-16T07:22:54.636Z,14.13
2019-02-16T07:25:23.199Z,13.95
2019-02-16T07:27:51.883Z,12.30
2019-02-16T07:30:20.440Z,15.78
2019-02-16T07:32:49.001Z,11.73
2019-02-16T07:35:17.601Z,13.32
2019-02-16T07:37:46.220Z,12.28
2019-02-16T07:40:14.808Z,14.43
2019-02-16T07:42:54.102Z,20.37
2019-02-16T07:45:38.319Z,16.23
2019-02-16T07:48:11.019Z,14.43
2019-02-16T07:50:46.871Z,13.00
2019-02-16T07:53:30.939Z,12.70
2019-02-16T07:55:54.713Z,13.80
2019-02-16T07:58:25.098Z,16.75
2019-02-16T08:01:10.439Z,16.70
2019-02-16T08:03:46.195Z,17.48
2019-02-16T08:06:27.964Z,17.90
2019-02-16T08:09:04.399Z,21.75
2019-02-16T08:11:34.636Z,64.97
2019-02-16T08:14:08.023Z,17.25
2019-02-16T08:16:54.300Z,15.13
2019-02-16T08:19:30.348Z,16.93
2019-02-16T08:22:06.687Z,17.80
2019-02-16T08:24:39.702Z,17.92
2019-02-16T08:27:12.869Z,14.78
2019-02-16T08:29:48.820Z,17.65
2019-02-16T08:32:19.014Z,15.32
2019-02-16T08:34:58.117Z,16.02
2019-02-16T08:37:28.317Z,13.35
2019-02-16T08:40:13.419Z,14.93
2019-02-16T08:42:55.417Z,13.95
2019-02-16T08:45:31.683Z,16.25
2019-02-16T08:48:01.888Z,15.90
2019-02-16T08:50:32.138Z,14.25
2019-02-16T08:53:02.336Z,20.82
2019-02-16T08:55:35.295Z,17.27
2019-02-16T08:58:17.387Z,18.05
2019-02-16T09:00:50.300Z,17.20
2019-02-16T09:03:20.499Z,17.73
2019-02-16T09:05:50.797Z,16.60
2019-02-16T09:08:23.720Z,18.33
2019-02-16T09:11:09.969Z,17.07
2019-02-16T09:13:40.164Z,14.63
2019-02-16T09:16:10.424Z,13.33
2019-02-16T09:18:40.624Z,16.60
2019-02-16T09:21:16.798Z,22.13
2019-02-16T09:24:03.112Z,17.30
2019-02-16T09:26:42.102Z,18.37
2019-02-16T09:29:15.092Z,15.97
2019-02-16T09:32:03.245Z,21.17
2019-02-16T09:34:39.165Z,17.93
2019-02-16T09:37:09.357Z,15.23
2019-02-16T09:39:39.663Z,14.53
2019-02-16T09:42:09.888Z,12.50
2019-02-16T09:44:58.053Z,16.70
2019-02-16T09:47:28.236Z,14.73
2019-02-16T09:49:58.481Z,14.70
2019-02-16T09:52:28.677Z,14.90
2019-02-16T09:55:01.676Z,14.23
2019-02-16T09:57:47.905Z,18.17
2019-02-16T10:00:18.140Z,13.10
2019-02-16T10:02:51.105Z,14.17
2019-02-16T10:05:33.458Z,18.53
2019-02-16T10:08:12.464Z,14.73
2019-02-16T10:10:45.449Z,14.90
2019-02-16T10:13:18.404Z,15.70
2019-02-16T10:15:48.651Z,15.07
2019-02-16T10:18:21.529Z,16.30
2019-02-16T10:20:57.505Z,12.53
2019-02-16T10:23:27.777Z,19.33
2019-02-16T10:26:00.775Z,16.03
2019-02-16T10:28:36.692Z,18.70
2019-02-16T10:31:06.960Z,17.37
2019-02-16T10:33:37.160Z,18.47
2019-02-16T10:36:25.516Z,16.00
2019-02-16T10:39:07.550Z,17.27
2019-02-16T10:41:37.867Z,19.40
2019-02-16T10:44:08.059Z,18.17
2019-02-16T10:46:41.124Z,18.30
2019-02-16T10:49:20.147Z,21.63
2019-02-16T10:51:50.386Z,15.00
2019-02-16T10:54:26.748Z,19.67
2019-02-16T10:56:52.558Z,18.67
2019-02-16T10:59:22.799Z,14.23
2019-02-16T11:01:58.843Z,16.43
2019-02-16T11:04:38.199Z,14.70
2019-02-16T11:07:06.796Z,19.43
2019-02-16T11:09:54.936Z,19.00
2019-02-16T11:12:31.707Z,13.23
2019-02-16T11:15:18.160Z,21.53
2019-02-16T11:18:04.371Z,16.33
2019-02-16T11:20:37.089Z,14.13
2019-02-16T11:23:23.324Z,17.03
2019-02-16T11:26:05.464Z,11.67
2019-02-16T11:28:35.678Z,18.80
2019-02-16T11:31:05.917Z,15.00
2019-02-16T11:33:44.900Z,15.97
2019-02-16T11:36:15.162Z,13.70
2019-02-16T11:38:45.362Z,15.90
2019-02-16T11:41:27.629Z,18.80
2019-02-16T11:44:00.877Z,12.20
2019-02-16T11:46:36.946Z,17.57
2019-02-16T11:49:15.917Z,18.33
2019-02-16T11:51:46.168Z,16.30
2019-02-16T11:54:19.183Z,17.10
2019-02-16T11:56:52.396Z,16.40
2019-02-16T11:59:25.318Z,15.03
2019-02-16T12:02:07.275Z,12.90
2019-02-16T12:04:37.473Z,15.63
2019-02-16T12:07:22.258Z,16.30
2019-02-16T12:10:07.549Z,15.47
2019-02-16T12:12:37.858Z,16.03
2019-02-16T12:15:17.572Z,16.60
2019-02-16T12:17:47.825Z,16.77
2019-02-16T12:20:33.645Z,12.90
2019-02-16T12:23:01.825Z,11.97
2019-02-16T12:25:50.037Z,14.27
2019-02-16T12:28:23.240Z,14.90
2019-02-16T12:31:09.468Z,13.20
2019-02-16T12:33:39.664Z,14.67
2019-02-16T12:36:12.334Z,15.23
2019-02-16T12:39:04.543Z,15.87
2019-02-16T12:41:33.437Z,13.07
2019-02-16T12:44:19.691Z,14.40
2019-02-16T12:47:01.794Z,15.20
2019-02-16T12:49:34.964Z,15.90
2019-02-16T12:52:20.123Z,16.27
2019-02-16T12:54:55.898Z,16.27
2019-02-16T12:57:31.590Z,17.10
2019-02-16T13:00:10.697Z,19.70
2019-02-16T13:02:43.738Z,17.90
2019-02-16T13:05:25.824Z,17.23
2019-02-16T13:07:56.088Z,17.00
2019-02-16T13:10:35.005Z,17.33
2019-02-16T13:13:20.992Z,18.43
2019-02-16T13:16:06.000Z,17.97
2019-02-16T13:18:36.300Z,16.73
2019-02-16T13:21:18.624Z,19.03
2019-02-16T13:23:54.412Z,20.03
2019-02-16T13:26:30.417Z,17.17
2019-02-16T13:29:16.466Z,21.10
2019-02-16T13:31:55.481Z,21.30
2019-02-16T13:34:31.710Z,19.00
2019-02-16T13:37:02.553Z,17.03
2019-02-16T13:39:32.752Z,20.77
2019-02-16T13:42:03.003Z,18.03
2019-02-16T13:44:35.911Z,22.13
2019-02-16T13:47:08.608Z,20.60
2019-02-16T13:49:39.072Z,16.07
2019-02-16T13:52:18.353Z,22.40
2019-02-16T13:55:00.420Z,25.47
2019-02-16T13:57:30.735Z,21.00
2019-02-16T14:00:00.899Z,20.60
2019-02-16T14:02:34.129Z,18.23
2019-02-16T14:05:07.212Z,21.10
2019-02-16T14:07:40.510Z,20.13
2019-02-16T14:10:22.719Z,24.03
2019-02-16T14:12:55.593Z,24.07
2019-02-16T14:15:29.612Z,20.47
2019-02-16T14:17:58.366Z,25.43
2019-02-16T14:20:26.931Z,23.13
2019-02-16T14:22:55.635Z,20.33
2019-02-16T14:25:25.784Z,20.77
2019-02-16T14:27:54.404Z,21.10
2019-02-16T14:30:22.961Z,21.67
2019-02-16T14:32:51.580Z,21.43
2019-02-16T14:35:20.147Z,22.80
2019-02-16T14:37:50.428Z,22.33
2019-02-16T14:40:18.984Z,26.53
2019-02-16T14:42:47.613Z,21.37
2019-02-16T14:45:16.344Z,23.50
2019-02-16T14:47:46.346Z,21.63
2019-02-16T14:50:16.754Z,19.10
2019-02-16T14:52:45.119Z,23.27
2019-02-16T14:55:16.486Z,20.57
2019-02-16T14:57:45.160Z,25.70
2019-02-16T15:00:13.971Z,24.00
2019-02-16T15:02:42.595Z,20.93
2019-02-16T15:05:11.232Z,24.40
2019-02-16T15:07:39.794Z,19.23
2019-02-16T15:10:10.972Z,22.77
2019-02-16T15:12:39.592Z,18.00
2019-02-16T15:15:12.543Z,21.80
2019-02-16T15:17:41.099Z,22.67
2019-02-16T15:20:12.802Z,20.00
2019-02-16T15:22:41.364Z,23.83
2019-02-16T15:25:11.478Z,23.13
2019-02-16T15:27:40.148Z,21.47
2019-02-16T15:30:14.558Z,23.80
2019-02-16T15:32:43.261Z,20.60
2019-02-16T15:35:12.331Z,22.10
2019-02-16T15:37:40.961Z,21.40
2019-02-16T15:40:10.904Z,21.73
2019-02-16T15:42:39.470Z,21.73
2019-02-16T15:45:12.789Z,24.57
2019-02-16T15:47:41.413Z,25.13
2019-02-16T15:50:11.985Z,22.43
2019-02-16T15:52:40.544Z,20.63
2019-02-16T15:55:10.900Z,23.87
2019-02-16T15:57:39.847Z,21.73
2019-02-16T16:00:26.609Z,23.50
2019-02-16T16:02:55.290Z,20.87
2019-02-16T16:05:24.127Z,22.80
2019-02-16T16:07:54.352Z,17.83
2019-02-16T16:10:30.727Z,21.67
2019-02-16T16:13:09.857Z,18.97
2019-02-16T16:15:55.920Z,16.97
2019-02-16T16:18:29.116Z,14.43
2019-02-16T16:21:11.268Z,14.80
2019-02-16T16:23:44.284Z,11.67
2019-02-16T16:26:30.454Z,14.23
2019-02-16T16:29:00.913Z,16.30
2019-02-16T16:31:33.589Z,14.80
2019-02-16T16:34:18.927Z,14.10
2019-02-16T16:36:52.100Z,15.43
2019-02-16T16:39:22.365Z,18.33
2019-02-16T16:41:55.476Z,14.43
2019-02-16T16:44:34.538Z,14.37
2019-02-16T16:47:10.448Z,17.73
2019-02-16T16:49:40.714Z,14.37
2019-02-16T16:52:10.919Z,17.27
2019-02-16T16:54:53.519Z,18.47
2019-02-16T16:57:26.820Z,13.53
2019-02-16T16:59:57.085Z,21.97
2019-02-16T17:02:27.284Z,15.80
2019-02-16T17:05:13.987Z,17.63
2019-02-16T17:07:52.948Z,15.00
2019-02-16T17:10:23.204Z,19.23
2019-02-16T17:12:55.878Z,14.67
2019-02-16T17:15:34.884Z,15.87
2019-02-16T17:18:05.075Z,15.63
2019-02-16T17:20:53.513Z,26.47
2019-02-16T17:23:29.506Z,21.53
2019-02-16T17:25:59.765Z,15.17
2019-02-16T17:28:41.758Z,15.27
2019-02-16T17:31:14.711Z,42.83
2019-02-16T17:33:59.436Z,20.07
2019-02-16T17:36:42.296Z,14.50
2019-02-16T17:39:12.543Z,19.47
2019-02-16T17:41:58.764Z,17.97
2019-02-16T17:44:29.038Z,28.37
2019-02-16T17:47:07.964Z,28.20
2019-02-16T17:49:41.196Z,30.63
2019-02-16T17:52:11.732Z,33.17
2019-02-16T17:54:50.875Z,38.60
2019-02-16T17:57:21.071Z,29.13
2019-02-16T17:59:54.016Z,36.17
2019-02-16T18:02:24.284Z,27.60
2019-02-16T18:04:54.561Z,36.70
2019-02-16T18:07:30.603Z,24.93
2019-02-16T18:10:17.369Z,20.03
2019-02-16T18:12:50.279Z,19.60
2019-02-16T18:15:36.547Z,17.60
2019-02-16T18:18:06.745Z,19.40
2019-02-16T18:20:42.996Z,23.50
2019-02-16T18:23:18.899Z,15.17
2019-02-16T18:26:05.411Z,17.47
2019-02-16T18:28:57.293Z,18.30
2019-02-16T18:31:35.749Z,19.03
2019-02-16T18:34:08.673Z,19.87
2019-02-16T18:36:38.936Z,17.83
2019-02-16T18:39:12.569Z,21.70
2019-02-16T18:41:45.247Z,15.03
2019-02-16T18:44:24.417Z,17.00
2019-02-16T18:46:57.605Z,18.37
2019-02-16T18:49:30.327Z,20.17
2019-02-16T18:52:00.600Z,23.23
2019-02-16T18:54:33.503Z,26.37
2019-02-16T18:57:19.776Z,32.00
2019-02-16T18:59:49.998Z,30.70
2019-02-16T19:02:36.204Z,32.10
2019-02-16T19:05:13.476Z,30.30
2019-02-16T19:07:52.344Z,27.37
2019-02-16T19:10:23.028Z,27.63
2019-02-16T19:12:58.679Z,26.63
2019-02-16T19:15:28.943Z,26.50
2019-02-16T19:18:11.280Z,23.90
2019-02-16T19:20:41.552Z,22.17
2019-02-16T19:23:27.792Z,18.93
2019-02-16T19:26:06.886Z,31.00
2019-02-16T19:28:42.883Z,31.43
2019-02-16T19:31:13.149Z,19.10
2019-02-16T19:33:49.315Z,21.33
2019-02-16T19:36:19.589Z,22.73
2019-02-16T19:38:52.315Z,26.33
2019-02-16T19:41:31.323Z,22.20
2019-02-16T19:44:01.520Z,30.00
2019-02-16T19:46:31.788Z,19.63
2019-02-16T19:49:01.993Z,17.60
2019-02-16T19:51:44.108Z,15.43
2019-02-16T19:54:22.785Z,16.50
2019-02-16T19:57:07.844Z,17.63
2019-02-16T19:59:38.036Z,16.00
2019-02-16T20:02:20.139Z,21.93
2019-02-16T20:04:56.437Z,19.60
2019-02-16T20:07:35.565Z,19.23
2019-02-16T20:10:12.642Z,18.13
2019-02-16T20:12:42.908Z,16.30
2019-02-16T20:15:29.227Z,18.77
2019-02-16T20:17:59.504Z,15.47
2019-02-16T20:20:38.816Z,16.07
2019-02-16T20:23:20.904Z,19.27
2019-02-16T20:25:51.103Z,22.67
2019-02-16T20:28:21.364Z,23.90
2019-02-16T20:30:57.344Z,28.47
2019-02-16T20:33:33.428Z,27.30
2019-02-16T20:36:06.547Z,25.80
2019-02-16T20:38:39.297Z,29.10
2019-02-16T20:41:09.492Z,27.37
2019-02-16T20:43:45.521Z,30.40
2019-02-16T20:46:21.796Z,36.87
2019-02-16T20:48:54.829Z,36.73
2019-02-16T20:51:33.676Z,40.77
2019-02-16T20:54:03.883Z,38.10
2019-02-16T20:56:36.874Z,37.67
2019-02-16T20:59:23.123Z,34.07
2019-02-16T21:01:53.644Z,34.00
2019-02-16T21:04:39.549Z,33.03
2019-02-16T21:07:12.268Z,28.60
2019-02-16T21:09:45.539Z,30.90
2019-02-16T21:12:15.809Z,28.03
2019-02-16T21:15:02.305Z,21.13
2019-02-16T21:17:35.178Z,20.97
2019-02-16T21:20:23.541Z,15.73
2019-02-16T21:23:10.016Z,15.90
2019-02-16T21:25:46.168Z,15.30
2019-02-16T21:28:25.176Z,23.17
2019-02-16T21:30:55.375Z,16.37
2019-02-16T21:33:25.639Z,13.00
2019-02-16T21:35:58.547Z,16.43
2019-02-16T21:38:44.705Z,18.30
2019-02-16T21:41:17.959Z,18.07
2019-02-16T21:43:51.147Z,22.93
2019-02-16T21:46:21.355Z,27.37
2019-02-16T21:48:57.050Z,21.35
2019-02-16T21:51:43.103Z,24.07
2019-02-16T21:54:19.680Z,24.00
2019-02-16T21:56:49.879Z,21.97
2019-02-16T21:59:29.149Z,22.42
2019-02-16T22:02:05.188Z,18.87
2019-02-16T22:04:51.461Z,22.10
2019-02-16T22:07:24.377Z,18.20
2019-02-16T22:10:06.004Z,23.60
2019-02-16T22:12:52.436Z,28.50
2019-02-16T22:15:20.995Z,26.23
2019-02-16T22:17:49.617Z,32.33
2019-02-16T22:20:18.175Z,29.43
2019-02-16T22:22:46.797Z,24.63
2019-02-16T22:25:15.429Z,23.87
2019-02-16T22:27:44.047Z,25.60
2019-02-16T22:30:12.686Z,21.33
2019-02-16T22:32:41.295Z,24.57
2019-02-16T22:35:09.997Z,18.48
2019-02-16T22:37:38.607Z,14.60
2019-02-16T22:40:08.516Z,15.00
2019-02-16T22:42:37.116Z,16.50
2019-02-16T22:45:08.680Z,19.62
2019-02-16T22:47:37.289Z,16.48
2019-02-16T22:50:08.992Z,15.15
2019-02-16T22:52:37.664Z,14.85
2019-02-16T22:55:08.263Z,16.15
2019-02-16T22:57:36.869Z,20.48
2019-02-16T23:00:11.508Z,20.02
2019-02-16T23:02:40.256Z,21.45
2019-02-16T23:05:08.892Z,22.85
2019-02-16T23:07:37.507Z,23.75
2019-02-16T23:10:10.726Z,27.70
2019-02-16T23:12:39.476Z,23.52
2019-02-16T23:15:10.375Z,17.25
2019-02-16T23:17:39.055Z,20.35
2019-02-16T23:20:10.377Z,20.20
2019-02-16T23:22:39.049Z,23.77
2019-02-16T23:25:08.958Z,23.67
2019-02-16T23:27:37.570Z,20.62
2019-02-16T23:30:11.595Z,21.75
2019-02-16T23:32:40.277Z,22.80
2019-02-16T23:35:09.274Z,22.02
2019-02-16T23:37:37.948Z,19.07
2019-02-16T23:40:08.156Z,17.82
2019-02-16T23:42:36.756Z,16.45
2019-02-16T23:45:08.224Z,16.42
2019-02-16T23:47:36.893Z,21.48
2019-02-16T23:50:10.417Z,19.05
2019-02-16T23:52:39.024Z,19.07
2019-02-16T23:55:11.288Z,18.67
2019-02-16T23:57:39.897Z,19.00
